Time;durP1;ratioP1;P1;durP2;ratioP2;P2;SDS_P1;SDS_P2;PMS_P1;PMS_P2;Temp;Humidity;BMP_temperature;BMP_pressure;BME280_temperature;BME280_humidity;BME280_pressure;Samples;Min_cycle;Max_cycle;Signal;HPM_P1;HPM_P2
2022/04/13 00:02:39;;;;;;;5.35;4.85;;;;;;;7.87;53.43;100110.78;10213190;29;20051;-69
2022/04/13 00:07:41;;;;;;;6.05;4.85;;;;;;;7.79;53.58;100115.28;10213572;29;20039;-68
2022/04/13 00:12:42;;;;;;;5.60;5.00;;;;;;;7.69;54.81;100113.75;10213208;29;20466;-69
2022/04/13 00:17:44;;;;;;;11.40;4.97;;;;;;;7.62;55.74;100117.38;10215870;29;20469;-69
2022/04/13 00:22:46;;;;;;;4.93;4.50;;;;;;;7.44;56.28;100118.56;10221179;29;20055;-69
2022/04/13 00:27:47;;;;;;;6.75;5.30;;;;;;;7.29;56.08;100112.69;10221434;29;20576;-68
2022/04/13 00:32:49;;;;;;;7.07;5.28;;;;;;;7.17;56.17;100112.94;10221174;29;20039;-69
2022/04/13 00:37:50;;;;;;;6.55;5.85;;;;;;;7.19;56.12;100113.75;10221651;29;20103;-69
2022/04/13 00:42:52;;;;;;;7.03;5.68;;;;;;;7.30;56.11;100101.38;10220932;29;20517;-68
2022/04/13 00:47:54;;;;;;;6.07;5.05;;;;;;;7.28;55.53;100102.28;10201723;29;20506;-69
2022/04/13 00:52:58;;;;;;;6.72;6.00;;;;;;;7.38;55.80;100108.22;10204118;29;20047;-69
2022/04/13 00:58:02;;;;;;;6.30;5.53;;;;;;;7.39;55.28;100105.56;10220447;29;20063;-69
2022/04/13 01:03:04;;;;;;;6.88;5.68;;;;;;;7.39;55.32;100097.72;10219927;29;20103;-69
2022/04/13 01:08:08;;;;;;;6.10;5.43;;;;;;;8.04;53.75;100092.97;10219766;29;20036;-69
2022/04/13 01:13:10;;;;;;;6.63;5.93;;;;;;;7.96;53.95;100096.66;10219242;29;20098;-69
2022/04/13 01:18:13;;;;;;;7.10;5.88;;;;;;;7.69;54.60;100104.13;10219108;29;20182;-69
2022/04/13 01:23:15;;;;;;;8.43;6.10;;;;;;;7.76;55.39;100100.53;10201707;29;20056;-69
2022/04/13 01:28:17;;;;;;;7.07;6.00;;;;;;;7.63;55.92;100093.81;10218530;23;20048;-74
2022/04/13 01:33:19;;;;;;;7.28;6.53;;;;;;;7.32;57.15;100103.94;10223445;29;20051;-74
2022/04/13 01:38:20;;;;;;;7.13;6.38;;;;;;;7.07;57.23;100108.72;10224474;29;20051;-75
2022/04/13 01:43:23;;;;;;;7.40;6.70;;;;;;;7.12;58.14;100103.41;10227631;29;20043;-74
2022/04/13 01:48:25;;;;;;;7.13;6.47;;;;;;;7.08;58.42;100111.34;10224736;29;20092;-74
2022/04/13 01:53:26;;;;;;;10.23;6.78;;;;;;;6.86;59.72;100115.13;10225297;29;20163;-74
2022/04/13 01:58:29;;;;;;;11.07;7.22;;;;;;;6.47;60.35;100107.03;10222430;29;20052;-73
2022/04/13 02:03:31;;;;;;;9.75;6.90;;;;;;;6.41;60.42;100114.06;10226504;29;20126;-75
2022/04/13 02:08:33;;;;;;;10.15;7.03;;;;;;;6.71;59.75;100113.63;10224376;29;20490;-74
2022/04/13 02:13:34;;;;;;;8.63;7.05;;;;;;;6.69;59.44;100112.81;10222793;29;20056;-74
2022/04/13 02:18:36;;;;;;;9.88;7.30;;;;;;;6.68;59.29;100110.19;10224076;29;20103;-74
2022/04/13 02:23:38;;;;;;;8.48;7.55;;;;;;;6.66;59.03;100111.97;10223999;29;20066;-73
2022/04/13 02:28:40;;;;;;;8.18;7.05;;;;;;;6.91;58.77;100122.94;10226974;29;20052;-74
2022/04/13 02:33:42;;;;;;;7.65;6.85;;;;;;;7.04;57.93;100111.41;10223908;29;20050;-74
2022/04/13 02:38:43;;;;;;;8.25;7.30;;;;;;;7.27;57.23;100114.50;10222268;29;20048;-74
2022/04/13 02:43:45;;;;;;;8.80;7.43;;;;;;;7.36;56.46;100120.47;10222898;29;20047;-74
2022/04/13 02:48:47;;;;;;;8.63;7.70;;;;;;;7.34;56.44;100113.47;10223844;29;20044;-74
2022/04/13 02:53:48;;;;;;;10.73;6.53;;;;;;;7.08;57.32;100110.44;10222381;29;20056;-74
2022/04/13 02:58:50;;;;;;;10.35;7.15;;;;;;;7.13;57.16;100107.75;10220173;29;20062;-74
2022/04/13 03:03:51;;;;;;;7.30;6.60;;;;;;;7.27;56.51;100105.78;10219769;29;20060;-74
2022/04/13 03:08:53;;;;;;;7.85;7.15;;;;;;;6.95;57.24;100107.19;10221457;29;20134;-74
2022/04/13 03:13:55;;;;;;;8.85;6.50;;;;;;;6.99;57.19;100106.22;10221758;29;20051;-73
2022/04/13 03:18:56;;;;;;;7.72;6.80;;;;;;;7.16;56.54;100102.47;10218538;29;20055;-74
2022/04/13 03:23:58;;;;;;;8.60;6.82;;;;;;;7.01;57.27;100094.00;10202254;29;20047;-74
2022/04/13 03:28:59;;;;;;;11.27;7.68;;;;;;;7.14;56.97;100099.03;10218859;29;20048;-75
2022/04/13 03:34:01;;;;;;;8.40;7.10;;;;;;;6.75;57.31;100102.25;10205824;29;20525;-74
2022/04/13 03:39:03;;;;;;;11.43;7.78;;;;;;;7.03;57.11;100100.06;10202438;29;20497;-73
2022/04/13 03:44:05;;;;;;;11.50;7.57;;;;;;;7.07;57.01;100099.13;10218520;29;20065;-74
2022/04/13 03:49:08;;;;;;;8.13;7.32;;;;;;;6.83;57.52;100105.63;10216794;29;20494;-75
2022/04/13 03:54:09;;;;;;;8.45;7.65;;;;;;;6.83;57.50;100099.53;10219062;29;20505;-74
2022/04/13 03:59:11;;;;;;;10.98;7.07;;;;;;;6.90;57.40;100100.28;10217540;29;20044;-74
2022/04/13 04:04:12;;;;;;;7.53;6.75;;;;;;;6.83;57.84;100109.97;10217726;29;20534;-73
2022/04/13 04:09:14;;;;;;;8.40;7.47;;;;;;;6.83;57.82;100117.81;10218625;29;20047;-73
2022/04/13 04:14:15;;;;;;;7.50;6.70;;;;;;;6.95;57.66;100124.59;10219586;29;20131;-74
2022/04/13 04:19:17;;;;;;;8.55;7.75;;;;;;;6.97;57.19;100125.44;10218223;29;20136;-74
2022/04/13 04:24:19;;;;;;;8.60;7.80;;;;;;;7.08;57.19;100128.72;10219068;29;20052;-74
2022/04/13 04:29:22;;;;;;;8.27;6.85;;;;;;;7.02;57.20;100119.25;10218062;29;20446;-74
2022/04/13 04:34:23;;;;;;;10.13;7.38;;;;;;;7.16;56.65;100118.16;10217977;29;20096;-74
2022/04/13 04:39:25;;;;;;;11.32;8.13;;;;;;;7.33;56.07;100119.59;10218861;29;20042;-75
2022/04/13 04:44:27;;;;;;;9.13;8.20;;;;;;;7.15;56.94;100121.69;10218200;29;20133;-75
2022/04/13 04:49:29;;;;;;;8.68;7.57;;;;;;;7.31;55.96;100123.16;10216003;29;20060;-74
2022/04/13 04:54:30;;;;;;;10.80;8.43;;;;;;;7.40;56.07;100128.22;10217641;29;20051;-75
2022/04/13 04:59:32;;;;;;;8.65;7.78;;;;;;;7.53;55.45;100128.88;10219545;29;20064;-75
2022/04/13 05:04:34;;;;;;;10.23;8.77;;;;;;;7.59;55.43;100129.63;10220828;29;20565;-75
2022/04/13 05:09:36;;;;;;;8.32;7.50;;;;;;;7.64;55.24;100131.28;10224770;29;20043;-74
2022/04/13 05:14:37;;;;;;;9.05;7.78;;;;;;;7.84;54.76;100124.78;10224133;29;20061;-75
2022/04/13 05:19:39;;;;;;;10.00;8.95;;;;;;;7.82;55.00;100121.31;10228122;29;20494;-75
2022/04/13 05:24:41;;;;;;;9.80;8.60;;;;;;;8.02;54.93;100123.56;10223577;29;20051;-79
2022/04/13 05:29:42;;;;;;;9.50;8.25;;;;;;;8.15;54.44;100131.19;10223703;29;20044;-75
2022/04/13 05:34:44;;;;;;;8.63;7.75;;;;;;;8.56;52.91;100135.56;10224191;29;20048;-73
2022/04/13 05:39:47;;;;;;;9.48;7.68;;;;;;;8.57;53.22;100135.53;10223265;29;20052;-75
2022/04/13 05:44:50;;;;;;;8.82;7.93;;;;;;;9.11;51.48;100136.91;10227924;29;20406;-75
2022/04/13 05:49:52;;;;;;;8.88;7.30;;;;;;;9.38;50.43;100131.88;10226385;29;20517;-76
2022/04/13 05:54:53;;;;;;;13.38;7.63;;;;;;;9.59;49.43;100139.22;10223092;29;20066;-75
2022/04/13 05:59:55;;;;;;;10.70;8.55;;;;;;;9.73;50.27;100146.72;10222755;29;20035;-74
2022/04/13 06:04:57;;;;;;;10.20;7.70;;;;;;;10.35;47.44;100144.16;10225859;29;20051;-74
2022/04/13 06:10:01;;;;;;;10.55;8.40;;;;;;;10.68;47.21;100144.06;10223007;29;20505;-74
2022/04/13 06:15:12;;;;;;;10.48;8.50;;;;;;;10.90;46.35;100145.13;10220849;29;20134;-74
2022/04/13 06:20:14;;;;;;;9.63;8.57;;;;;;;11.28;45.95;100151.78;10223713;29;20044;-75
2022/04/13 06:25:18;;;;;;;9.27;8.23;;;;;;;11.36;46.47;100147.13;10224572;29;20062;-75
2022/04/13 06:30:23;;;;;;;10.05;8.32;;;;;;;11.59;45.81;100141.06;10222538;29;20450;-74
2022/04/13 06:35:26;;;;;;;12.85;8.13;;;;;;;11.90;43.90;100141.81;10222176;29;20498;-75
2022/04/13 06:40:27;;;;;;;10.02;9.02;;;;;;;11.85;46.12;100144.63;10221746;29;20051;-74
2022/04/13 06:45:29;;;;;;;10.82;9.27;;;;;;;12.30;45.30;100136.81;10223306;29;20103;-75
2022/04/13 06:50:31;;;;;;;8.95;8.00;;;;;;;12.40;43.95;100145.28;10223897;29;20039;-76
2022/04/13 06:55:39;;;;;;;;;;;;;;;12.72;44.12;100143.19;10222131;29;20047;-75
2022/04/13 07:00:41;;;;;;;10.45;9.35;;;;;;;12.84;44.05;100145.34;10219192;29;19930;-75
2022/04/13 07:05:43;;;;;;;9.60;8.55;;;;;;;13.16;43.91;100151.13;10220731;29;20071;-74
2022/04/13 07:10:46;;;;;;;11.07;9.05;;;;;;;13.46;42.69;100149.00;10222377;29;20521;-75
2022/04/13 07:15:52;;;;;;;11.43;9.52;;;;;;;13.71;42.47;100152.34;10219751;29;20111;-74
2022/04/13 07:20:54;;;;;;;10.80;9.70;;;;;;;13.92;41.55;100147.91;10219813;29;20053;-75
2022/04/13 07:25:56;;;;;;;10.77;8.65;;;;;;;14.21;40.97;100145.75;10220586;23;20059;-71
2022/04/13 07:30:57;;;;;;;10.20;9.15;;;;;;;14.49;40.41;100159.50;10175358;29;20048;-71
2022/04/13 07:35:59;;;;;;;10.38;9.38;;;;;;;14.77;40.36;100150.25;10175097;29;20586;-71
2022/04/13 07:41:02;;;;;;;13.02;9.93;;;;;;;14.80;40.20;100156.28;10214598;29;20076;-71
2022/04/13 07:46:03;;;;;;;9.55;8.57;;;;;;;15.24;40.41;100157.72;10213605;29;20488;-71
2022/04/13 07:51:05;;;;;;;10.93;9.48;;;;;;;15.67;38.95;100161.78;10219319;29;20086;-71
2022/04/13 07:56:07;;;;;;;11.18;8.98;;;;;;;15.99;39.50;100160.13;10232385;29;20189;-70
2022/04/13 08:01:09;;;;;;;10.98;9.55;;;;;;;16.25;39.18;100161.41;10234449;29;20051;-71
2022/04/13 08:06:11;;;;;;;10.10;9.10;;;;;;;16.11;38.45;100169.19;10228412;29;20054;-71
2022/04/13 08:11:13;;;;;;;9.60;8.52;;;;;;;16.49;38.23;100161.88;10252956;29;20554;-71
2022/04/13 08:16:14;;;;;;;10.00;9.07;;;;;;;16.84;37.30;100157.31;10253317;29;20054;-71
2022/04/13 08:21:16;;;;;;;9.85;8.88;;;;;;;17.25;37.96;100167.38;10253050;29;20058;-71
2022/04/13 08:26:17;;;;;;;13.00;8.90;;;;;;;17.28;36.79;100163.72;10252253;29;20082;-71
2022/04/13 08:31:19;;;;;;;13.63;9.65;;;;;;;17.49;36.32;100161.63;10252562;29;20043;-71
2022/04/13 08:36:21;;;;;;;9.55;8.52;;;;;;;17.81;35.40;100165.91;10253214;29;20408;-71
2022/04/13 08:41:48;;;;;;;10.25;9.30;;;;;;;17.52;36.57;100170.25;10259427;28;20051;-71
2022/04/13 08:46:55;;;;;;;14.07;9.63;;;;;;;17.86;36.18;100166.50;10260602;29;20489;-71
2022/04/13 08:52:03;;;;;;;10.05;9.18;;;;;;;18.25;36.25;100161.53;10260086;29;20413;-71
2022/04/13 08:57:09;;;;;;;11.65;9.23;;;;;;;18.74;35.20;100169.13;10260159;29;20058;-71
2022/04/13 09:02:44;;;;;;;9.55;8.65;;;;;;;19.07;35.18;100172.28;10259332;29;20043;-71
2022/04/13 09:08:05;;;;;;;9.52;8.68;;;;;;;19.66;34.33;100161.34;10259527;29;20051;-71
2022/04/13 09:13:10;;;;;;;9.98;9.07;;;;;;;19.64;34.35;100161.44;10242723;29;20098;-71
2022/04/13 09:18:12;;;;;;;9.13;8.23;;;;;;;19.98;33.12;100156.47;10259411;29;20051;-71
2022/04/13 09:23:15;;;;;;;9.30;8.30;;;;;;;19.92;33.41;100164.88;10258760;29;20066;-71
2022/04/13 09:28:17;;;;;;;8.52;7.80;;;;;;;19.72;33.82;100154.72;10259245;29;20098;-72
2022/04/13 09:33:19;;;;;;;9.63;8.73;;;;;;;20.24;33.72;100153.81;10258921;29;20048;-72
2022/04/13 09:38:21;;;;;;;9.05;8.15;;;;;;;20.17;33.09;100161.38;10258213;29;20051;-71
2022/04/13 09:43:25;;;;;;;8.25;7.45;;;;;;;20.56;34.59;100151.56;10241671;29;20424;-71
2022/04/13 09:48:29;;;;;;;8.25;7.50;;;;;;;20.80;35.09;100154.28;10257517;28;20051;-70
2022/04/13 09:53:30;;;;;;;9.70;6.95;;;;;;;20.55;32.25;100147.19;10257365;29;20047;-71
2022/04/13 09:58:33;;;;;;;8.23;7.05;;;;;;;20.75;33.08;100146.59;10258034;29;20058;-71
2022/04/13 10:03:35;;;;;;;6.85;6.18;;;;;;;20.92;33.33;100146.22;10258492;29;20047;-71
2022/04/13 10:08:36;;;;;;;6.25;5.65;;;;;;;21.41;32.80;100136.44;10257492;29;20043;-71
2022/04/13 10:13:40;;;;;;;6.70;5.78;;;;;;;21.87;31.82;100130.28;10257298;29;20047;-71
2022/04/13 10:19:05;;;;;;;4.90;4.45;;;;;;;22.02;31.74;100121.03;10257613;29;20066;-70
2022/04/13 10:24:31;;;;;;;7.03;4.57;;;;;;;21.75;31.46;100133.88;10256981;29;20039;-71
2022/04/13 10:29:35;;;;;;;5.28;4.30;;;;;;;22.29;30.02;100128.75;10257262;29;20051;-71
2022/04/13 10:34:48;;;;;;;3.63;3.33;;;;;;;22.89;32.26;100129.31;10256149;29;20110;-72
2022/04/13 10:39:54;;;;;;;5.45;3.90;;;;;;;22.90;29.35;100133.72;10260248;29;20047;-72
2022/04/13 10:45:03;;;;;;;4.30;3.53;;;;;;;22.86;30.62;100138.44;10256613;29;20408;-72
2022/04/13 10:50:07;;;;;;;6.15;3.72;;;;;;;22.65;30.00;100121.44;10255783;29;20056;-72
2022/04/13 10:55:13;;;;;;;6.68;3.83;;;;;;;22.91;29.82;100125.56;10255905;29;20058;-72
2022/04/13 11:00:18;;;;;;;3.97;3.35;;;;;;;22.77;29.84;100125.81;10255147;28;20051;-71
2022/04/13 11:05:22;;;;;;;4.25;3.55;;;;;;;22.99;30.24;100127.63;10238438;29;20062;-71
2022/04/13 11:10:25;;;;;;;4.15;3.60;;;;;;;23.32;28.33;100121.28;10254468;29;20548;-71
2022/04/13 11:15:50;;;;;;;3.38;2.88;;;;;;;23.20;28.84;100124.13;10254224;29;20047;-70
2022/04/13 11:21:10;;;;;;;2.95;2.28;;;;;;;23.55;29.48;100130.09;10254679;29;20051;-71
2022/04/13 11:26:11;;;;;;;4.57;3.17;;;;;;;23.47;28.13;100127.22;10254331;29;20098;-71
2022/04/13 11:31:13;;;;;;;4.05;3.15;;;;;;;23.29;28.25;100126.06;10253985;29;20043;-71
2022/04/13 11:36:15;;;;;;;4.47;4.07;;;;;;;23.16;28.83;100120.88;10254311;29;20410;-73
2022/04/13 11:41:48;;;;;;;3.05;2.53;;;;;;;23.17;27.48;100111.84;10254046;29;20070;-71
2022/04/13 11:47:13;;;;;;;4.35;3.17;;;;;;;23.27;27.96;100133.38;10237464;29;20409;-71
2022/04/13 11:52:39;;;;;;;4.10;3.07;;;;;;;23.05;27.80;100124.41;10253660;29;20090;-71
2022/04/13 11:58:05;;;;;;;4.40;3.03;;;;;;;23.09;28.11;100123.19;10253251;29;20054;-71
2022/04/13 12:03:17;;;;;;;3.85;2.65;;;;;;;22.99;28.74;100113.38;10253208;29;20045;-71
2022/04/13 12:08:22;;;;;;;4.32;3.70;;;;;;;23.09;29.19;100112.47;10252944;29;20053;-71
2022/04/13 12:13:24;;;;;;;4.35;3.90;;;;;;;22.97;27.98;100113.47;10255339;28;20102;-71
2022/04/13 12:18:27;;;;;;;4.43;4.03;;;;;;;22.64;28.98;100101.81;10261291;29;20054;-70
2022/04/13 12:23:28;;;;;;;6.47;4.25;;;;;;;22.23;29.09;100102.47;10261826;29;20043;-71
2022/04/13 12:28:30;;;;;;;4.95;4.43;;;;;;;22.15;29.94;100100.41;10243330;29;20051;-70
2022/04/13 12:33:32;;;;;;;4.60;4.20;;;;;;;22.31;29.81;100100.03;10260431;29;20047;-71
2022/04/13 12:38:54;;;;;;;4.95;4.45;;;;;;;22.17;30.04;100103.78;10260206;29;20043;-71
2022/04/13 12:43:59;;;;;;;5.07;4.57;;;;;;;22.13;29.93;100102.34;10260510;29;20043;-71
2022/04/13 12:49:04;;;;;;;8.10;4.43;;;;;;;22.00;30.25;100093.56;10260640;29;20390;-71
2022/04/13 12:54:07;;;;;;;5.55;4.40;;;;;;;22.06;29.81;100094.88;10259786;29;20047;-71
2022/04/13 12:59:18;;;;;;;5.78;5.18;;;;;;;21.98;28.97;100090.13;10259783;29;20449;-71
2022/04/13 13:04:22;;;;;;;5.03;4.55;;;;;;;21.95;30.96;100081.47;10259507;29;20047;-71
2022/04/13 13:09:26;;;;;;;4.40;4.00;;;;;;;22.06;29.40;100078.81;10259643;29;20445;-71
2022/04/13 13:14:42;;;;;;;5.22;4.72;;;;;;;21.93;29.39;100095.00;10259153;29;20039;-71
2022/04/13 13:19:48;;;;;;;6.00;4.63;;;;;;;21.61;30.31;100087.63;10259228;29;20095;-71
2022/04/13 13:30:10;;;;;;;6.65;5.47;;;;;;;21.36;30.30;100088.66;10101656;29;20056;-76
2022/04/13 13:35:18;;;;;;;6.28;5.68;;;;;;;21.53;30.91;100090.03;10088466;29;20089;-76
2022/04/13 13:40:32;;;;;;;7.57;5.72;;;;;;;21.64;29.79;100094.56;10105115;29;20049;-74
2022/04/13 13:45:42;;;;;;;9.07;6.50;;;;;;;21.35;29.59;100094.13;10088445;29;20101;-75
2022/04/13 13:50:44;;;;;;;7.78;6.55;;;;;;;21.27;29.91;100088.47;10106149;29;20467;-77
2022/04/13 13:55:46;;;;;;;8.70;6.43;;;;;;;21.29;30.08;100095.38;10089172;29;20061;-76
2022/04/13 14:00:51;;;;;;;8.68;7.88;;;;;;;21.22;30.70;100090.63;10106785;29;20491;-77
2022/04/13 14:05:53;;;;;;;8.85;7.95;;;;;;;20.97;30.56;100081.75;10105305;29;20049;-77
2022/04/13 14:10:56;;;;;;;8.68;7.88;;;;;;;20.89;31.75;100090.38;10089196;29;20518;-76
2022/04/13 14:15:59;;;;;;;9.82;8.82;;;;;;;21.10;30.77;100076.34;10106075;29;20059;-76
2022/04/13 14:21:01;;;;;;;15.50;7.50;;;;;;;21.33;32.07;100088.88;10108284;29;20402;-77
2022/04/13 14:26:03;;;;;;;10.60;9.57;;;;;;;21.01;31.23;100096.59;10105770;29;20056;-76
2022/04/13 14:31:04;;;;;;;9.80;8.30;;;;;;;20.93;30.92;100096.31;10105580;29;20415;-76
2022/04/13 14:36:06;;;;;;;10.70;8.38;;;;;;;20.75;31.88;100097.66;10106726;29;20059;-75
2022/04/13 14:41:08;;;;;;;8.13;7.18;;;;;;;20.84;31.75;100097.00;10089415;29;20049;-77
2022/04/13 14:46:09;;;;;;;7.85;7.15;;;;;;;20.89;31.98;100094.81;10089860;29;20060;-77
2022/04/13 14:51:11;;;;;;;10.30;9.23;;;;;;;20.83;32.28;100097.97;10106337;29;20468;-75
2022/04/13 14:56:13;;;;;;;12.38;11.02;;;;;;;20.67;32.88;100103.56;10091192;29;20473;-77
2022/04/13 15:01:15;;;;;;;11.45;10.43;;;;;;;20.49;33.51;100102.22;10089957;29;20057;-76
2022/04/13 15:06:24;;;;;;;15.02;12.20;;;;;;;20.20;34.25;100104.28;10106608;29;20491;-76
2022/04/13 15:11:26;;;;;;;12.82;11.60;;;;;;;20.30;33.96;100105.31;10090010;29;20049;-76
2022/04/13 15:16:29;;;;;;;12.65;11.23;;;;;;;20.40;34.43;100101.88;10091649;29;20117;-74
2022/04/13 15:21:32;;;;;;;14.48;13.05;;;;;;;20.23;34.30;100099.59;10105300;29;20041;-76
2022/04/13 15:26:35;;;;;;;13.38;12.07;;;;;;;20.29;34.73;100098.28;10105117;29;20045;-76
2022/04/13 15:31:37;;;;;;;12.60;11.30;;;;;;;19.93;35.61;100102.59;10105078;29;20516;-76
2022/04/13 15:36:42;;;;;;;12.80;11.50;;;;;;;19.98;34.63;100105.78;10090473;29;20045;-74
2022/04/13 15:41:44;;;;;;;12.93;11.73;;;;;;;19.92;35.80;100108.84;10105513;29;20041;-75
2022/04/13 15:46:46;;;;;;;13.38;12.07;;;;;;;19.81;35.72;100106.09;10104450;29;20072;-75
2022/04/13 15:51:48;;;;;;;14.00;11.45;;;;;;;19.94;34.44;100098.09;10087227;29;20101;-76
2022/04/13 15:56:49;;;;;;;11.90;10.80;;;;;;;19.86;34.78;100104.81;10104275;29;20049;-76
2022/04/13 16:01:53;;;;;;;13.20;11.57;;;;;;;19.69;35.54;100106.94;10104700;29;20123;-75
2022/04/13 16:06:55;;;;;;;12.90;11.52;;;;;;;19.68;35.02;100103.41;10087647;29;20136;-74
2022/04/13 16:11:56;;;;;;;13.25;11.00;;;;;;;19.38;35.90;100099.16;10087398;29;20060;-74
2022/04/13 16:17:00;;;;;;;12.05;10.85;;;;;;;19.82;35.63;100105.13;10102104;29;20547;-74
2022/04/13 16:22:02;;;;;;;12.95;11.75;;;;;;;20.02;35.37;100103.75;10102801;29;20466;-75
2022/04/13 16:27:03;;;;;;;11.90;10.82;;;;;;;19.99;35.17;100101.28;10101803;29;20045;-74
2022/04/13 16:32:06;;;;;;;12.50;11.30;;;;;;;20.04;34.49;100101.81;10088523;29;20056;-74
2022/04/13 16:37:11;;;;;;;12.95;11.52;;;;;;;19.81;35.16;100109.59;10104501;29;20407;-72
2022/04/13 16:42:13;;;;;;;15.27;12.40;;;;;;;19.67;35.33;100107.03;10103298;29;20048;-72
2022/04/13 16:47:15;;;;;;;12.63;11.43;;;;;;;19.71;35.38;100100.53;10100760;29;20412;-72
2022/04/13 16:52:18;;;;;;;11.88;10.75;;;;;;;19.69;35.01;100101.59;10101516;29;20131;-72
2022/04/13 16:57:20;;;;;;;11.60;10.40;;;;;;;19.62;35.43;100109.19;10103799;29;20049;-71
2022/04/13 17:02:22;;;;;;;11.77;10.23;;;;;;;19.09;36.14;100114.44;10107631;29;20037;-73
2022/04/13 17:07:24;;;;;;;13.93;11.20;;;;;;;19.24;36.31;100109.03;10106159;29;20049;-73
2022/04/13 17:12:27;;;;;;;11.48;10.20;;;;;;;19.12;36.39;100110.69;10106618;29;20052;-72
2022/04/13 17:17:28;;;;;;;12.63;11.02;;;;;;;18.70;37.57;100112.56;10106637;29;20053;-72
2022/04/13 17:22:31;;;;;;;15.65;10.07;;;;;;;18.63;38.10;100111.19;10103437;29;20174;-72
2022/04/13 17:27:33;;;;;;;14.07;11.15;;;;;;;18.74;38.39;100111.41;10102337;29;20465;-72
2022/04/13 17:32:35;;;;;;;11.48;10.48;;;;;;;18.46;38.86;100122.06;10087757;29;20057;-73
2022/04/13 17:37:37;;;;;;;11.48;10.38;;;;;;;18.32;39.16;100120.25;10105458;29;20068;-71
2022/04/13 17:42:38;;;;;;;12.02;10.75;;;;;;;18.28;39.64;100110.75;10106551;29;20049;-71
2022/04/13 17:47:40;;;;;;;16.48;14.82;;;;;;;18.07;40.21;100110.31;10106575;29;20049;-72
2022/04/13 17:52:41;;;;;;;18.08;12.07;;;;;;;18.04;40.28;100114.00;10106093;29;20051;-72
2022/04/13 17:57:44;;;;;;;15.13;12.10;;;;;;;17.91;40.90;100110.38;10107650;29;20065;-72
2022/04/13 18:02:45;;;;;;;13.40;11.82;;;;;;;17.62;41.89;100110.31;10077212;29;20055;-72
2022/04/13 18:07:48;;;;;;;13.98;12.57;;;;;;;16.97;42.87;100114.16;10108554;29;20088;-72
2022/04/13 18:12:50;;;;;;;13.40;12.20;;;;;;;16.59;44.14;100130.38;10091509;29;20041;-72
2022/04/13 18:17:52;;;;;;;12.95;11.55;;;;;;;16.32;44.57;100125.63;10106610;29;20136;-72
2022/04/13 18:22:54;;;;;;;28.65;13.02;;;;;;;16.19;45.08;100124.56;10105265;29;20491;-72
2022/04/13 18:27:56;;;;;;;54.78;15.05;;;;;;;15.99;45.93;100127.44;10088657;29;20053;-73
2022/04/13 18:32:58;;;;;;;12.05;10.85;;;;;;;15.81;46.15;100134.56;10088926;29;20140;-72
2022/04/13 18:38:03;;;;;;;15.30;11.70;;;;;;;15.70;46.37;100142.19;10104396;29;20053;-72
2022/04/13 18:43:05;;;;;;;13.98;12.63;;;;;;;15.60;47.02;100137.34;10104713;29;20119;-73
2022/04/13 18:48:07;;;;;;;12.23;11.02;;;;;;;15.47;47.45;100144.19;10103141;29;20522;-73
2022/04/13 18:53:08;;;;;;;14.07;12.77;;;;;;;15.36;47.95;100142.09;10103118;29;20049;-73
2022/04/13 18:58:10;;;;;;;13.93;12.68;;;;;;;15.18;48.38;100142.13;10102700;29;20049;-72
2022/04/13 19:03:12;;;;;;;14.48;13.05;;;;;;;15.11;48.56;100154.81;10085615;29;20457;-73
2022/04/13 19:08:14;;;;;;;13.60;12.18;;;;;;;15.08;48.90;100150.50;10102751;29;20125;-72
2022/04/13 19:13:16;;;;;;;14.85;11.65;;;;;;;15.00;49.17;100151.81;10102158;29;20129;-76
2022/04/13 19:18:18;;;;;;;14.02;11.98;;;;;;;14.93;49.86;100153.91;10086296;29;20434;-73
2022/04/13 19:23:23;;;;;;;14.63;12.95;;;;;;;15.41;48.21;100147.16;10101549;29;20496;-73
2022/04/13 19:28:25;;;;;;;13.63;11.93;;;;;;;15.46;47.42;100149.56;10085042;29;20117;-74
2022/04/13 19:33:27;;;;;;;14.60;13.30;;;;;;;15.38;47.83;100147.28;10101489;29;20045;-74
2022/04/13 19:38:29;;;;;;;12.40;11.25;;;;;;;15.18;48.80;100150.06;10101387;29;20563;-73
2022/04/13 19:43:31;;;;;;;12.90;11.60;;;;;;;15.29;50.99;100142.47;10085652;29;20056;-74
2022/04/13 19:48:36;;;;;;;13.10;11.25;;;;;;;14.99;51.05;100144.81;10101886;29;20049;-74
2022/04/13 19:53:38;;;;;;;11.40;10.38;;;;;;;14.48;52.35;100141.91;10101633;29;20526;-73
2022/04/13 19:58:40;;;;;;;12.43;11.32;;;;;;;14.28;53.96;100142.78;10100410;29;20500;-73
2022/04/13 20:03:42;;;;;;;12.57;11.50;;;;;;;14.05;54.51;100138.53;10100376;29;20160;-74
2022/04/13 20:08:46;;;;;;;14.68;12.13;;;;;;;13.91;55.27;100140.06;10101505;29;21455;-74
2022/04/13 20:13:48;;;;;;;14.73;12.60;;;;;;;13.73;55.87;100153.16;10084860;29;20113;-74
2022/04/13 20:18:51;;;;;;;19.60;11.55;;;;;;;13.40;56.46;100146.63;10101415;29;20049;-74
2022/04/13 20:23:53;;;;;;;14.75;11.88;;;;;;;13.29;57.44;100149.72;10101717;29;20109;-74
2022/04/13 20:28:55;;;;;;;13.75;10.65;;;;;;;13.20;57.05;100152.72;10100653;29;20052;-75
2022/04/13 20:33:59;;;;;;;11.63;10.63;;;;;;;13.27;57.00;100139.22;10086558;29;20048;-74
2022/04/13 20:39:01;;;;;;;15.43;11.40;;;;;;;12.96;58.52;100139.56;10109330;29;20056;-74
2022/04/13 20:44:03;;;;;;;13.13;11.77;;;;;;;12.91;59.01;100148.59;10109099;29;20071;-74
2022/04/13 20:49:05;;;;;;;12.75;11.55;;;;;;;12.88;59.01;100144.28;10107561;29;20060;-74
2022/04/13 20:54:06;;;;;;;15.80;12.18;;;;;;;12.59;60.28;100142.78;10108480;29;20468;-73
2022/04/13 20:59:09;;;;;;;13.50;11.98;;;;;;;12.32;60.83;100149.97;10106675;29;20503;-74
2022/04/13 21:04:11;;;;;;;15.07;12.10;;;;;;;12.08;60.80;100149.91;10090723;29;20411;-74
2022/04/13 21:09:12;;;;;;;12.85;11.65;;;;;;;12.06;61.21;100143.00;10091819;29;20053;-73
2022/04/13 21:14:14;;;;;;;13.30;11.77;;;;;;;11.94;61.35;100143.44;10106445;29;20052;-75
2022/04/13 21:19:20;;;;;;;14.05;12.07;;;;;;;11.90;62.08;100145.31;10106521;29;20048;-74
2022/04/13 21:24:21;;;;;;;13.48;12.27;;;;;;;11.89;62.26;100143.59;10107873;29;20044;-74
2022/04/13 21:29:23;;;;;;;13.88;12.35;;;;;;;12.00;62.08;100144.09;10105966;29;20112;-73
2022/04/13 21:34:24;;;;;;;12.27;10.95;;;;;;;11.97;62.01;100144.19;10105160;29;20037;-73
2022/04/13 21:39:26;;;;;;;13.63;11.00;;;;;;;11.60;63.18;100142.81;10105052;29;20049;-73
2022/04/13 21:44:27;;;;;;;13.23;11.88;;;;;;;11.35;63.75;100149.81;10105245;29;20045;-73
2022/04/13 21:49:29;;;;;;;13.40;12.18;;;;;;;11.32;63.85;100155.19;10106219;29;20045;-74
2022/04/13 21:54:31;;;;;;;13.88;11.27;;;;;;;11.09;64.09;100158.56;10104206;29;20407;-74
2022/04/13 21:59:32;;;;;;;13.63;12.35;;;;;;;11.00;64.17;100150.97;10104820;29;20060;-74
2022/04/13 22:04:34;;;;;;;12.80;11.50;;;;;;;11.08;64.69;100165.59;10104879;29;20522;-73
2022/04/13 22:09:35;;;;;;;13.25;11.95;;;;;;;11.03;65.12;100171.91;10104516;29;20416;-74
2022/04/13 22:14:37;;;;;;;13.57;12.27;;;;;;;11.11;65.37;100165.50;10105748;29;20037;-74
2022/04/13 22:19:38;;;;;;;13.90;12.40;;;;;;;11.29;63.85;100173.72;10103100;29;20056;-74
2022/04/13 22:24:40;;;;;;;12.00;10.85;;;;;;;11.11;64.07;100178.66;10086385;29;20041;-74
2022/04/13 22:29:46;;;;;;;14.52;10.57;;;;;;;11.02;64.63;100184.22;10087175;29;20052;-74
2022/04/13 22:34:49;;;;;;;12.73;11.10;;;;;;;10.95;64.31;100179.19;10103138;29;20496;-74
2022/04/13 22:39:51;;;;;;;11.75;10.52;;;;;;;10.91;64.86;100183.66;10102899;29;20053;-74
2022/04/13 22:44:53;;;;;;;12.73;10.52;;;;;;;10.78;65.59;100187.56;10086121;29;20053;-74
2022/04/13 22:49:54;;;;;;;10.30;9.38;;;;;;;10.52;66.24;100183.94;10103782;29;20492;-74
2022/04/13 22:54:56;;;;;;;10.77;9.35;;;;;;;10.38;66.75;100174.75;10102808;29;20068;-74
2022/04/13 22:59:58;;;;;;;10.60;9.60;;;;;;;10.24;67.61;100176.00;10101762;29;20535;-75
2022/04/13 23:05:00;;;;;;;11.68;10.45;;;;;;;10.20;67.97;100169.06;10102676;29;20056;-74
2022/04/13 23:10:07;;;;;;;9.55;8.65;;;;;;;10.12;68.45;100171.03;10101723;29;20418;-73